Time;durP1;ratioP1;P1;durP2;ratioP2;P2;SDS_P1;SDS_P2;PMS_P1;PMS_P2;Temp;Humidity;BMP_temperature;BMP_pressure;BME280_temperature;BME280_humidity;BME280_pressure;Samples;Min_cycle;Max_cycle;Signal;HPM_P1;HPM_P2
2021/12/06 00:01:22;;;;;;;12.38;6.00;;;5.50;99.90;;;;;;5049151;28;20286;-81
2021/12/06 00:03:54;;;;;;;8.40;5.90;;;5.60;99.90;;;;;;5049553;28;20218;-81
2021/12/06 00:06:24;;;;;;;12.98;5.88;;;5.60;99.90;;;;;;5048564;28;20193;-81
2021/12/06 00:08:51;;;;;;;10.60;5.78;;;5.50;99.90;;;;;;5049225;28;20218;-81
2021/12/06 00:11:19;;;;;;;8.57;5.78;;;5.40;99.90;;;;;;5055341;28;20293;-81
2021/12/06 00:13:49;;;;;;;10.52;5.93;;;5.50;99.90;;;;;;5053969;28;20229;-81
2021/12/06 00:16:20;;;;;;;12.52;6.28;;;5.60;99.90;;;;;;5055111;28;20233;-81
2021/12/06 00:18:48;;;;;;;13.93;5.85;;;5.40;99.90;;;;;;5054802;28;20197;-81
2021/12/06 00:21:15;;;;;;;10.80;6.60;;;5.30;99.90;;;;;;5054261;28;20198;-81
2021/12/06 00:23:44;;;;;;;8.75;6.40;;;5.40;99.90;;;;;;5052132;28;20221;-81
2021/12/06 00:26:11;;;;;;;9.15;6.50;;;5.30;99.90;;;;;;5049765;28;20206;-81
2021/12/06 00:28:40;;;;;;;14.80;7.70;;;5.70;99.90;;;;;;5048977;28;20233;-81
2021/12/06 00:31:07;;;;;;;10.40;7.18;;;5.40;99.90;;;;;;5049758;28;20323;-81
2021/12/06 00:33:34;;;;;;;9.70;7.22;;;5.40;99.90;;;;;;5052237;28;20290;-81
2021/12/06 00:36:04;;;;;;;9.07;6.55;;;5.50;99.90;;;;;;5051502;28;20241;-81
2021/12/06 00:38:31;;;;;;;10.95;7.63;;;5.40;99.90;;;;;;5054614;28;20218;-81
2021/12/06 00:41:00;;;;;;;11.20;6.55;;;5.50;99.90;;;;;;5054234;22;20235;-82
2021/12/06 00:43:27;;;;;;;12.18;6.60;;;5.30;99.90;;;;;;5025092;28;20282;-80
2021/12/06 00:45:54;;;;;;;11.50;6.55;;;5.30;99.90;;;;;;5025253;28;20207;-83
2021/12/06 00:48:21;;;;;;;9.25;6.35;;;5.20;99.90;;;;;;5020050;28;20595;-83
2021/12/06 00:50:48;;;;;;;8.75;6.22;;;5.10;99.90;;;;;;5019572;28;20580;-82
2021/12/06 00:53:15;;;;;;;10.38;7.10;;;5.30;99.90;;;;;;5023285;28;20604;-82
2021/12/06 00:55:42;;;;;;;10.52;6.47;;;5.30;99.90;;;;;;5020870;28;20207;-84
2021/12/06 00:58:10;;;;;;;11.93;6.82;;;5.30;99.90;;;;;;5019533;28;20207;-83
2021/12/06 01:00:40;;;;;;;10.38;7.10;;;5.00;99.90;;;;;;5024915;28;20249;-84
2021/12/06 01:03:11;;;;;;;13.40;6.30;;;5.20;99.90;;;;;;5020863;28;20207;-84
2021/12/06 01:05:39;;;;;;;12.57;6.15;;;5.30;99.90;;;;;;5020392;28;20198;-84
2021/12/06 01:08:06;;;;;;;7.85;6.07;;;5.40;99.90;;;;;;5020077;28;20257;-83
2021/12/06 01:10:34;;;;;;;7.72;5.88;;;5.30;99.90;;;;;;5020770;28;20227;-83
2021/12/06 01:13:01;;;;;;;9.95;7.20;;;5.30;99.90;;;;;;5020090;28;20253;-82
2021/12/06 01:15:32;;;;;;;9.70;5.97;;;5.30;99.90;;;;;;5019491;28;20209;-83
2021/12/06 01:18:01;;;;;;;8.07;6.03;;;5.20;99.90;;;;;;5020131;28;20219;-83
2021/12/06 01:20:31;;;;;;;12.13;6.55;;;5.30;99.90;;;;;;5019936;28;20227;-83
2021/12/06 01:23:02;;;;;;;9.75;7.00;;;5.40;99.90;;;;;;5021438;28;20634;-82
2021/12/06 01:25:35;;;;;;;11.25;5.93;;;5.30;99.90;;;;;;5018986;28;20632;-85
2021/12/06 01:28:32;;;;;;;8.35;5.90;;;5.60;99.90;;;;;;5019240;28;20675;-82
2021/12/06 01:31:06;;;;;;;11.93;5.32;;;5.50;99.90;;;;;;5019060;28;20227;-82
2021/12/06 01:34:02;;;;;;;8.07;5.95;;;5.30;99.90;;;;;;5018787;28;20214;-83
2021/12/06 01:39:16;;;;;;;7.95;5.65;;;5.40;99.90;;;;;;5023139;28;20206;-83
2021/12/06 01:41:49;;;;;;;8.88;5.47;;;5.50;99.90;;;;;;5025694;28;20566;-84
2021/12/06 01:44:18;;;;;;;9.30;5.22;;;5.50;99.90;;;;;;5022939;28;20200;-84
2021/12/06 01:46:49;;;;;;;9.10;5.88;;;5.50;99.90;;;;;;5019685;28;20207;-84
2021/12/06 01:49:18;;;;;;;8.45;6.35;;;5.50;99.90;;;;;;5018170;28;20303;-84
2021/12/06 01:51:47;;;;;;;10.98;6.40;;;5.50;99.90;;;;;;5018490;28;20236;-84
2021/12/06 01:54:16;;;;;;;9.60;6.30;;;5.60;99.90;;;;;;5026710;28;20195;-81
2021/12/06 01:56:43;;;;;;;10.32;6.35;;;5.30;99.90;;;;;;5028284;28;20203;-83
2021/12/06 01:59:11;;;;;;;7.75;5.50;;;5.40;99.90;;;;;;5019264;28;20775;-82
2021/12/06 02:01:38;;;;;;;11.45;6.20;;;5.50;99.90;;;;;;5018390;28;20234;-83
2021/12/06 02:04:06;;;;;;;9.10;5.80;;;5.30;99.90;;;;;;5019492;28;20300;-82
2021/12/06 02:06:34;;;;;;;8.30;5.72;;;5.40;99.90;;;;;;5024591;28;20550;-82
2021/12/06 02:09:01;;;;;;;7.68;5.55;;;5.50;99.90;;;;;;5022313;28;20223;-82
2021/12/06 02:11:32;;;;;;;11.90;7.60;;;5.40;99.90;;;;;;5030052;28;20242;-85
2021/12/06 02:14:05;;;;;;;9.25;6.55;;;5.40;99.90;;;;;;5033944;28;20192;-80
2021/12/06 02:16:40;;;;;;;10.50;7.40;;;5.20;99.90;;;;;;5034065;28;20230;-82
2021/12/06 02:19:09;;;;;;;9.80;6.53;;;5.30;99.90;;;;;;5028161;28;20565;-82
2021/12/06 02:21:41;;;;;;;9.70;6.75;;;5.30;99.90;;;;;;5023970;28;20234;-83
2021/12/06 02:24:10;;;;;;;10.90;7.05;;;5.20;99.90;;;;;;5019842;28;20192;-84
2021/12/06 02:26:39;;;;;;;11.52;6.35;;;5.60;99.90;;;;;;5019253;28;20215;-83
2021/12/06 02:29:07;;;;;;;8.35;5.72;;;5.50;99.90;;;;;;5019270;28;20656;-83
2021/12/06 02:31:35;;;;;;;9.23;7.00;;;5.50;99.90;;;;;;5018658;28;20224;-83
2021/12/06 02:34:03;;;;;;;10.85;6.90;;;5.40;99.90;;;;;;5022597;28;20315;-83
2021/12/06 02:36:30;;;;;;;10.50;7.50;;;5.40;99.90;;;;;;5020982;28;20224;-83
2021/12/06 02:38:59;;;;;;;9.18;6.40;;;5.50;99.90;;;;;;5018196;28;20207;-83
2021/12/06 02:41:26;;;;;;;9.85;7.20;;;5.50;99.90;;;;;;5018408;28;20286;-83
2021/12/06 02:43:54;;;;;;;12.38;7.03;;;5.40;99.90;;;;;;5020016;28;20217;-82
2021/12/06 02:46:21;;;;;;;9.77;6.38;;;5.60;99.90;;;;;;5021565;28;20290;-84
2021/12/06 02:48:48;;;;;;;11.50;6.50;;;5.50;99.90;;;;;;5019006;28;20234;-83
2021/12/06 02:51:17;;;;;;;8.60;5.95;;;5.50;99.90;;;;;;5020662;28;20581;-83
2021/12/06 02:53:44;;;;;;;9.32;6.22;;;5.30;99.90;;;;;;5029514;28;20267;-82
2021/12/06 02:56:30;;;;;;;10.38;6.35;;;5.40;99.90;;;;;;5020792;28;20208;-83
2021/12/06 02:59:00;;;;;;;11.18;6.30;;;5.60;99.90;;;;;;5018191;28;20215;-82
2021/12/06 03:01:33;;;;;;;9.95;6.85;;;5.20;99.90;;;;;;5017357;28;20338;-82
2021/12/06 03:04:02;;;;;;;11.88;6.90;;;5.40;99.90;;;;;;5017456;28;20194;-83
2021/12/06 03:06:29;;;;;;;9.43;6.35;;;5.40;99.90;;;;;;5017568;28;20218;-83
2021/12/06 03:09:04;;;;;;;10.85;6.60;;;5.10;99.90;;;;;;5018380;28;20223;-82
2021/12/06 03:11:36;;;;;;;9.75;6.25;;;5.20;99.90;;;;;;5020485;28;20222;-83
2021/12/06 03:14:04;;;;;;;9.77;6.30;;;5.20;99.90;;;;;;5021343;28;20207;-84
2021/12/06 03:16:31;;;;;;;12.43;8.00;;;5.20;99.90;;;;;;5022618;28;20212;-84
2021/12/06 03:19:00;;;;;;;10.70;7.00;;;5.20;99.90;;;;;;5018089;28;20210;-84
2021/12/06 03:21:28;;;;;;;10.80;7.40;;;5.10;99.90;;;;;;5018289;28;20326;-84
2021/12/06 03:23:56;;;;;;;11.23;8.20;;;5.30;99.90;;;;;;5017322;28;20207;-83
2021/12/06 03:26:23;;;;;;;9.48;7.07;;;5.40;99.90;;;;;;5017725;28;20196;-83
2021/12/06 03:28:52;;;;;;;12.07;8.57;;;5.10;99.90;;;;;;5017848;28;20211;-83
2021/12/06 03:31:20;;;;;;;9.98;7.50;;;5.00;99.90;;;;;;5017975;28;20233;-83
2021/12/06 03:33:50;;;;;;;12.63;10.25;;;5.10;99.90;;;;;;5025782;28;20271;-81
2021/12/06 03:36:19;;;;;;;18.98;11.52;;;5.30;99.90;;;;;;5019394;28;20688;-82
2021/12/06 03:38:46;;;;;;;13.32;10.20;;;5.40;99.90;;;;;;5032462;28;20687;-83
2021/12/06 03:41:15;;;;;;;17.20;13.40;;;5.40;99.90;;;;;;5018952;28;20338;-83
2021/12/06 03:43:44;;;;;;;15.70;13.38;;;5.40;99.90;;;;;;5018100;28;20203;-84
2021/12/06 03:46:14;;;;;;;16.02;11.88;;;5.60;99.90;;;;;;5018843;28;20271;-83
2021/12/06 03:48:41;;;;;;;14.68;10.95;;;5.70;99.90;;;;;;5018605;28;20709;-85
2021/12/06 03:51:08;;;;;;;14.98;11.38;;;5.60;99.90;;;;;;5016848;28;20231;-84
2021/12/06 03:53:35;;;;;;;13.48;9.80;;;5.80;99.90;;;;;;5016947;28;20215;-83
2021/12/06 03:56:02;;;;;;;15.93;13.38;;;5.30;99.90;;;;;;5017083;28;20215;-83
2021/12/06 03:58:29;;;;;;;19.13;15.27;;;5.30;99.90;;;;;;5016612;28;20212;-84
2021/12/06 04:00:57;;;;;;;26.13;15.23;;;5.40;99.90;;;;;;5017859;28;20791;-83
2021/12/06 04:03:28;;;;;;;16.88;11.93;;;5.30;99.90;;;;;;5016673;28;20574;-84
2021/12/06 04:05:56;;;;;;;19.48;15.25;;;5.40;99.90;;;;;;5016952;28;20539;-83
2021/12/06 04:08:23;;;;;;;20.00;16.92;;;5.10;99.90;;;;;;5016410;28;20207;-84
2021/12/06 04:10:50;;;;;;;22.35;18.08;;;5.10;99.90;;;;;;5017760;28;20259;-84
2021/12/06 04:13:17;;;;;;;22.75;17.08;;;5.00;99.90;;;;;;5019421;28;20211;-84
2021/12/06 04:15:46;;;;;;;24.08;17.95;;;5.10;99.90;;;;;;5021587;28;20211;-84
2021/12/06 04:18:13;;;;;;;23.17;17.17;;;5.10;99.90;;;;;;5020307;28;20214;-83
2021/12/06 04:20:42;;;;;;;22.48;16.35;;;5.40;99.90;;;;;;5024902;28;20239;-83
2021/12/06 04:23:11;;;;;;;24.15;16.83;;;5.20;99.90;;;;;;5028985;28;20629;-83
2021/12/06 04:25:39;;;;;;;24.00;17.80;;;5.30;99.90;;;;;;5024393;28;20212;-82
2021/12/06 04:28:07;;;;;;;22.50;14.98;;;5.60;99.90;;;;;;5025544;28;20294;-84
2021/12/06 04:30:36;;;;;;;22.80;17.42;;;5.60;99.90;;;;;;5021557;28;20719;-83
2021/12/06 04:33:03;;;;;;;20.65;15.15;;;5.50;99.90;;;;;;5021137;28;20233;-84
2021/12/06 04:35:31;;;;;;;25.08;16.40;;;5.40;99.90;;;;;;5022071;28;20214;-82
2021/12/06 04:38:00;;;;;;;23.23;16.67;;;5.60;99.90;;;;;;5020270;28;20208;-83
2021/12/06 04:40:28;;;;;;;22.08;15.60;;;5.40;99.90;;;;;;5020393;28;20251;-83
2021/12/06 04:42:55;;;;;;;25.83;16.17;;;5.20;99.90;;;;;;5019972;28;20212;-84
2021/12/06 04:45:22;;;;;;;21.35;16.45;;;5.40;99.90;;;;;;5019827;28;20207;-83
2021/12/06 04:47:50;;;;;;;26.42;17.10;;;5.40;99.90;;;;;;5019898;28;20210;-83
2021/12/06 04:50:18;;;;;;;24.77;16.35;;;5.50;99.90;;;;;;5019993;28;20263;-83
2021/12/06 04:52:46;;;;;;;21.73;16.35;;;5.40;99.90;;;;;;5022654;28;20287;-83
2021/12/06 04:55:22;;;;;;;28.85;17.83;;;5.50;99.90;;;;;;5023690;28;20207;-82
2021/12/06 04:57:49;;;;;;;22.92;17.00;;;5.50;99.90;;;;;;5021926;28;20196;-83
2021/12/06 05:00:21;;;;;;;23.90;17.48;;;5.20;99.90;;;;;;5024072;28;20258;-81
2021/12/06 05:02:49;;;;;;;24.38;16.80;;;5.40;99.90;;;;;;5027831;28;20191;-83
2021/12/06 05:05:23;;;;;;;27.70;19.42;;;5.20;99.90;;;;;;5028297;28;20207;-83
2021/12/06 05:07:56;;;;;;;27.90;19.15;;;4.80;99.90;;;;;;5024221;28;20206;-84
2021/12/06 05:10:24;;;;;;;26.60;17.67;;;5.10;99.90;;;;;;5021729;28;20247;-84
2021/12/06 05:12:52;;;;;;;27.33;18.38;;;5.00;99.90;;;;;;5020181;28;20646;-83
2021/12/06 05:15:19;;;;;;;28.50;18.08;;;5.00;99.90;;;;;;5020951;28;20535;-84
2021/12/06 05:17:46;;;;;;;24.80;17.70;;;5.40;99.90;;;;;;5020634;28;20208;-84
2021/12/06 05:20:14;;;;;;;21.98;16.60;;;5.40;99.90;;;;;;5024200;28;20314;-80
2021/12/06 05:22:42;;;;;;;23.33;14.32;;;5.40;99.90;;;;;;5033393;28;20199;-84
2021/12/06 05:25:10;;;;;;;20.27;15.88;;;5.70;99.90;;;;;;5021635;28;20207;-83
2021/12/06 05:27:39;;;;;;;23.80;14.75;;;5.70;99.90;;;;;;5021717;28;20207;-84
2021/12/06 05:30:09;;;;;;;22.15;15.50;;;5.60;99.90;;;;;;5021095;28;20227;-83
2021/12/06 05:32:37;;;;;;;20.38;15.32;;;5.40;99.90;;;;;;5019949;28;20628;-82
2021/12/06 05:35:07;;;;;;;20.80;15.63;;;5.40;99.90;;;;;;5027550;28;20265;-84
2021/12/06 05:37:37;;;;;;;21.33;15.68;;;5.40;99.90;;;;;;5020239;28;20207;-82
2021/12/06 05:40:05;;;;;;;21.02;15.85;;;5.40;99.90;;;;;;5020538;28;20241;-81
2021/12/06 05:42:32;;;;;;;26.15;16.55;;;5.30;99.90;;;;;;5020270;28;20195;-83
2021/12/06 05:45:01;;;;;;;22.05;14.75;;;5.30;99.90;;;;;;5020527;28;20218;-84
2021/12/06 05:47:27;;;;;;;24.02;15.13;;;5.20;99.90;;;;;;5020208;28;20564;-82
2021/12/06 05:49:54;;;;;;;21.63;14.10;;;5.40;99.90;;;;;;5019794;28;20707;-84
2021/12/06 05:52:21;;;;;;;21.13;13.20;;;5.40;99.90;;;;;;5019670;28;20207;-82
2021/12/06 05:54:48;;;;;;;19.60;14.20;;;5.30;99.90;;;;;;5019648;28;20203;-83
2021/12/06 05:57:15;;;;;;;19.83;13.30;;;5.30;99.90;;;;;;5021398;28;20278;-81
2021/12/06 05:59:43;;;;;;;21.70;13.65;;;5.20;99.90;;;;;;5020646;28;20281;-84
2021/12/06 06:02:12;;;;;;;24.75;14.35;;;5.20;99.90;;;;;;5025084;28;20216;-84
2021/12/06 06:04:40;;;;;;;24.13;16.13;;;5.40;99.90;;;;;;5025597;28;20195;-84
2021/12/06 06:07:07;;;;;;;20.95;13.35;;;5.50;99.90;;;;;;5020390;28;20265;-84
2021/12/06 06:09:35;;;;;;;23.33;14.25;;;5.50;99.90;;;;;;5020809;28;20668;-81
2021/12/06 06:12:03;;;;;;;19.98;12.55;;;5.30;99.90;;;;;;5019841;28;20222;-82
2021/12/06 06:14:31;;;;;;;19.30;13.10;;;5.40;99.90;;;;;;5021297;28;20206;-83
2021/12/06 06:17:07;;;;;;;19.17;12.07;;;5.30;99.90;;;;;;5021803;28;20354;-82
2021/12/06 06:19:37;;;;;;;19.33;11.40;;;5.50;99.90;;;;;;5020800;28;20282;-83
2021/12/06 06:22:04;;;;;;;21.98;15.20;;;5.10;99.90;;;;;;5019542;28;20191;-83
2021/12/06 06:24:31;;;;;;;20.23;13.65;;;4.90;99.90;;;;;;5020087;28;20218;-83
2021/12/06 06:26:58;;;;;;;20.52;13.60;;;5.20;99.90;;;;;;5025655;28;20271;-83
2021/12/06 06:29:25;;;;;;;23.45;15.00;;;5.00;99.90;;;;;;5027883;28;20222;-83
2021/12/06 06:31:52;;;;;;;21.35;14.50;;;5.30;99.90;;;;;;5026468;28;20239;-83
2021/12/06 06:34:18;;;;;;;17.98;12.73;;;5.00;99.90;;;;;;5024165;28;20204;-84
2021/12/06 06:36:47;;;;;;;20.67;13.63;;;5.10;99.90;;;;;;5020600;28;20234;-83
2021/12/06 06:39:14;;;;;;;19.73;13.85;;;5.50;99.90;;;;;;5021695;28;20207;-85
2021/12/06 06:41:41;;;;;;;21.25;14.88;;;5.20;99.90;;;;;;5025306;28;20231;-81
2021/12/06 06:44:08;;;;;;;23.13;16.15;;;5.20;99.90;;;;;;5032416;28;20547;-80
2021/12/06 06:46:35;;;;;;;22.95;15.45;;;5.20;99.90;;;;;;5029769;28;20734;-81
2021/12/06 06:49:03;;;;;;;21.10;13.70;;;5.10;99.90;;;;;;5020079;28;20198;-81
2021/12/06 06:51:30;;;;;;;19.08;13.23;;;5.20;99.90;;;;;;5019082;28;20307;-81
2021/12/06 06:53:58;;;;;;;21.63;13.30;;;5.00;99.90;;;;;;5019491;28;20310;-80
2021/12/06 06:56:25;;;;;;;25.85;16.23;;;5.20;99.90;;;;;;5020797;28;20227;-81
2021/12/06 06:58:55;;;;;;;25.45;16.23;;;5.30;99.90;;;;;;5062839;22;20234;-78
2021/12/06 07:01:22;;;;;;;26.30;17.27;;;5.30;99.90;;;;;;5044399;28;20207;-79
2021/12/06 07:03:53;;;;;;;25.60;15.95;;;5.30;99.90;;;;;;5041632;28;20203;-79
2021/12/06 07:06:20;;;;;;;24.77;15.82;;;5.30;99.90;;;;;;5035869;28;20194;-78
2021/12/06 07:08:47;;;;;;;25.00;15.73;;;5.00;99.90;;;;;;5035585;28;20248;-79
2021/12/06 07:11:15;;;;;;;22.80;15.45;;;5.30;99.90;;;;;;5036131;28;20237;-78
2021/12/06 07:13:43;;;;;;;28.45;15.35;;;5.30;99.90;;;;;;5038546;28;20203;-79
2021/12/06 07:16:11;;;;;;;25.58;16.83;;;5.40;99.90;;;;;;5037843;28;20229;-81
2021/12/06 07:18:39;;;;;;;25.85;16.08;;;5.30;99.90;;;;;;5037107;28;20245;-80
2021/12/06 07:21:06;;;;;;;19.05;11.20;;;5.30;99.90;;;;;;5036346;28;20582;-80
2021/12/06 07:23:38;;;;;;;24.10;13.82;;;5.20;99.90;;;;;;5037013;28;20207;-79
2021/12/06 07:26:05;;;;;;;24.42;15.23;;;5.20;99.90;;;;;;5035682;28;20230;-79
2021/12/06 07:28:33;;;;;;;25.00;15.30;;;5.00;99.90;;;;;;5035475;28;20233;-79
2021/12/06 07:31:02;;;;;;;24.30;16.10;;;5.00;99.90;;;;;;5036810;28;20321;-79
2021/12/06 07:33:29;;;;;;;25.38;16.10;;;5.20;99.90;;;;;;5038140;28;20218;-79
2021/12/06 07:35:56;;;;;;;25.67;15.20;;;5.10;99.90;;;;;;5037495;28;20297;-79
2021/12/06 07:38:23;;;;;;;26.27;17.05;;;5.30;99.90;;;;;;5035485;28;20253;-79
2021/12/06 07:40:50;;;;;;;26.73;16.98;;;5.00;99.90;;;;;;5036079;28;20210;-79
2021/12/06 07:43:17;;;;;;;28.17;18.27;;;4.80;99.90;;;;;;5036628;28;20210;-79
2021/12/06 07:45:46;;;;;;;22.48;14.63;;;4.90;99.90;;;;;;5035954;28;20211;-79
2021/12/06 07:48:13;;;;;;;24.15;14.73;;;5.00;99.90;;;;;;5037662;28;20227;-79
2021/12/06 07:50:40;;;;;;;25.00;15.43;;;5.30;99.90;;;;;;5042205;28;20226;-78
2021/12/06 07:53:07;;;;;;;26.45;16.58;;;5.20;99.90;;;;;;5037304;28;20317;-79
2021/12/06 07:55:35;;;;;;;21.88;13.70;;;5.50;99.90;;;;;;5036071;28;20207;-79
2021/12/06 07:58:03;;;;;;;21.52;14.13;;;5.40;99.90;;;;;;5034864;28;20608;-78
2021/12/06 08:00:32;;;;;;;22.17;14.07;;;5.30;99.90;;;;;;5035299;28;20578;-78
2021/12/06 08:03:01;;;;;;;20.98;13.32;;;5.40;99.90;;;;;;5037550;28;20535;-78
2021/12/06 08:05:33;;;;;;;22.20;13.10;;;5.40;99.90;;;;;;5038972;28;20344;-80
2021/12/06 08:08:04;;;;;;;21.95;13.60;;;5.60;99.90;;;;;;5038447;28;20250;-80
2021/12/06 08:10:32;;;;;;;21.13;14.32;;;5.70;99.90;;;;;;5038085;28;20211;-80
2021/12/06 08:12:59;;;;;;;24.45;14.25;;;5.50;99.90;;;;;;5037714;28;20210;-79
2021/12/06 08:15:26;;;;;;;23.33;14.57;;;5.30;99.90;;;;;;5038402;28;20216;-80
2021/12/06 08:17:53;;;;;;;23.92;15.52;;;5.60;99.90;;;;;;5040808;28;20223;-79
2021/12/06 08:20:21;;;;;;;25.25;15.25;;;5.60;99.90;;;;;;5043504;28;20216;-79
2021/12/06 08:22:48;;;;;;;23.00;13.93;;;5.60;99.90;;;;;;5038463;28;20293;-79
2021/12/06 08:25:16;;;;;;;25.40;16.08;;;5.60;99.90;;;;;;5035772;28;20217;-79
2021/12/06 08:27:44;;;;;;;22.08;15.10;;;5.60;99.90;;;;;;5036797;28;20233;-79
2021/12/06 08:30:13;;;;;;;21.20;14.25;;;5.60;99.90;;;;;;5034557;28;20226;-79
2021/12/06 08:32:41;;;;;;;21.92;15.13;;;5.80;99.90;;;;;;5034198;28;20293;-79
2021/12/06 08:35:08;;;;;;;21.23;13.88;;;5.90;99.90;;;;;;5036671;28;20578;-80
2021/12/06 08:37:37;;;;;;;23.27;13.98;;;5.70;99.90;;;;;;5035941;28;20241;-80
2021/12/06 08:40:05;;;;;;;21.83;13.32;;;6.10;99.90;;;;;;5035663;28;20211;-82
2021/12/06 08:42:32;;;;;;;23.23;13.60;;;6.00;99.90;;;;;;5036903;28;20587;-80
2021/12/06 08:44:59;;;;;;;21.20;13.20;;;6.20;99.90;;;;;;5036185;28;20214;-79
2021/12/06 08:47:26;;;;;;;18.73;12.65;;;6.30;99.90;;;;;;5035077;28;20314;-80
2021/12/06 08:49:53;;;;;;;19.65;13.30;;;6.30;99.90;;;;;;5036639;28;20218;-79
2021/12/06 08:52:20;;;;;;;21.38;12.70;;;5.90;99.90;;;;;;5037420;28;20297;-80
2021/12/06 08:54:48;;;;;;;21.77;13.82;;;6.00;99.90;;;;;;5035919;28;20207;-79
2021/12/06 08:57:16;;;;;;;23.90;14.98;;;5.80;99.90;;;;;;5034143;28;20231;-79
2021/12/06 08:59:43;;;;;;;20.35;13.00;;;5.60;99.90;;;;;;5036581;28;20191;-80
2021/12/06 09:02:10;;;;;;;21.08;13.40;;;6.00;99.90;;;;;;5038071;28;20208;-80
2021/12/06 09:04:39;;;;;;;18.35;12.88;;;5.80;99.90;;;;;;5039065;28;20697;-80
2021/12/06 09:07:11;;;;;;;19.35;13.40;;;5.80;99.90;;;;;;5040683;28;20207;-79
2021/12/06 09:09:40;;;;;;;19.88;13.20;;;5.80;99.90;;;;;;5040508;28;20187;-79
2021/12/06 09:12:09;;;;;;;18.38;11.77;;;5.90;99.90;;;;;;5037948;28;20266;-79
2021/12/06 09:14:35;;;;;;;17.48;11.80;;;5.70;99.90;;;;;;5038467;28;20206;-79
2021/12/06 09:17:02;;;;;;;18.15;11.10;;;5.90;99.90;;;;;;5037562;28;20213;-79
2021/12/06 09:19:29;;;;;;;18.48;10.75;;;6.30;99.90;;;;;;5038413;28;20222;-79
2021/12/06 09:21:56;;;;;;;16.52;10.23;;;6.00;99.90;;;;;;5037961;28;20207;-79
2021/12/06 09:24:23;;;;;;;17.85;11.50;;;6.40;99.90;;;;;;5037971;28;20552;-79
2021/12/06 09:26:50;;;;;;;17.67;11.20;;;5.90;99.90;;;;;;5037452;28;20593;-79
2021/12/06 09:29:19;;;;;;;16.73;11.65;;;6.10;99.90;;;;;;5037541;28;20226;-79
2021/12/06 09:31:47;;;;;;;16.60;10.82;;;6.00;99.90;;;;;;5037176;28;20230;-78
2021/12/06 09:34:14;;;;;;;16.60;10.70;;;6.00;99.90;;;;;;5037780;28;20213;-79
2021/12/06 09:36:41;;;;;;;16.33;10.05;;;6.20;99.90;;;;;;5037442;28;20302;-79
2021/12/06 09:39:08;;;;;;;17.02;11.63;;;6.20;99.90;;;;;;5038119;28;20313;-79
2021/12/06 09:41:36;;;;;;;16.38;10.10;;;6.20;99.90;;;;;;5037720;28;20203;-78
2021/12/06 09:44:05;;;;;;;15.70;8.60;;;6.20;99.90;;;;;;5036851;28;20198;-78
2021/12/06 09:46:36;;;;;;;19.73;10.45;;;6.30;99.90;;;;;;5037183;28;20361;-79
2021/12/06 09:49:07;;;;;;;18.55;10.05;;;6.20;99.90;;;;;;5037440;28;20234;-79
2021/12/06 09:51:34;;;;;;;15.55;10.93;;;6.50;99.90;;;;;;5038358;28;20282;-79
2021/12/06 09:54:01;;;;;;;14.43;9.80;;;6.50;99.90;;;;;;5042265;28;20259;-80
2021/12/06 09:56:32;;;;;;;15.93;10.15;;;6.50;99.90;;;;;;5038528;28;20378;-79
2021/12/06 09:59:01;;;;;;;15.82;9.35;;;6.60;99.90;;;;;;5041622;28;20306;-78
2021/12/06 10:01:30;;;;;;;15.05;9.70;;;6.70;99.90;;;;;;5037452;28;20206;-79
2021/12/06 10:03:59;;;;;;;16.88;11.50;;;6.50;99.90;;;;;;5037128;28;20293;-79
2021/12/06 10:06:28;;;;;;;14.85;9.10;;;6.80;99.90;;;;;;5039314;28;20191;-79
2021/12/06 10:08:57;;;;;;;16.75;9.80;;;6.80;99.90;;;;;;5039073;28;20227;-79
2021/12/06 10:11:26;;;;;;;18.30;11.35;;;6.80;99.90;;;;;;5042279;28;20594;-78
2021/12/06 10:13:54;;;;;;;17.08;10.45;;;6.70;99.90;;;;;;5045926;28;20211;-79
2021/12/06 10:16:22;;;;;;;17.60;11.65;;;6.90;99.90;;;;;;5046319;28;20191;-79
2021/12/06 10:18:49;;;;;;;16.52;9.45;;;6.90;99.90;;;;;;5039055;28;20234;-79
2021/12/06 10:21:18;;;;;;;16.73;9.68;;;6.80;99.90;;;;;;5041338;28;20215;-79
2021/12/06 10:23:45;;;;;;;15.55;8.45;;;6.90;99.90;;;;;;5040392;28;20293;-79
2021/12/06 10:26:17;;;;;;;12.60;8.07;;;6.80;99.90;;;;;;5039304;28;20651;-79
2021/12/06 10:28:44;;;;;;;14.40;9.00;;;6.90;99.90;;;;;;5039026;28;20227;-79
2021/12/06 10:31:14;;;;;;;15.88;8.80;;;6.60;99.90;;;;;;5039838;28;20233;-79
2021/12/06 10:33:45;;;;;;;14.07;8.50;;;6.80;99.90;;;;;;5040390;28;20218;-79
2021/12/06 10:36:16;;;;;;;15.57;9.73;;;7.00;99.90;;;;;;5040936;28;20211;-79
2021/12/06 10:38:51;;;;;;;18.13;9.95;;;6.80;99.90;;;;;;5037863;28;20718;-78
2021/12/06 10:41:20;;;;;;;15.32;10.27;;;6.60;99.90;;;;;;5035969;28;20240;-78
2021/12/06 10:43:52;;;;;;;18.40;10.48;;;6.90;99.90;;;;;;5035060;28;20203;-78
2021/12/06 10:46:21;;;;;;;13.88;8.45;;;6.80;99.90;;;;;;5035660;28;20581;-80
2021/12/06 10:48:48;;;;;;;13.82;8.38;;;6.90;99.90;;;;;;5035844;28;20231;-79
2021/12/06 10:51:18;;;;;;;13.75;7.95;;;6.90;99.90;;;;;;5035617;28;20675;-78
2021/12/06 10:53:51;;;;;;;15.70;7.68;;;7.00;99.90;;;;;;5040518;28;20272;-79
2021/12/06 10:56:24;;;;;;;12.50;8.43;;;7.20;99.90;;;;;;5036128;28;20268;-79
2021/12/06 10:58:53;;;;;;;13.27;7.20;;;7.20;99.90;;;;;;5034835;28;20238;-79
2021/12/06 11:01:24;;;;;;;12.15;7.05;;;7.40;99.90;;;;;;5035077;28;20624;-79
2021/12/06 11:03:54;;;;;;;11.35;7.03;;;7.40;99.90;;;;;;5035053;28;20250;-78
2021/12/06 11:06:26;;;;;;;13.98;7.25;;;7.20;99.90;;;;;;5034999;28;20358;-79
2021/12/06 11:08:58;;;;;;;9.75;5.45;;;7.20;99.90;;;;;;5036069;28;20365;-81
2021/12/06 11:11:28;;;;;;;15.23;6.40;;;7.20;99.90;;;;;;5038586;28;20307;-79
2021/12/06 11:13:57;;;;;;;7.82;5.00;;;7.30;99.90;;;;;;5037144;28;20242;-79
2021/12/06 11:16:25;;;;;;;8.77;5.25;;;7.10;99.90;;;;;;5037034;28;20301;-79
2021/12/06 11:18:54;;;;;;;9.18;5.30;;;7.40;99.90;;;;;;5036258;28;20227;-79
2021/12/06 11:21:33;;;;;;;9.90;5.60;;;7.20;99.90;;;;;;5036719;28;20204;-80
2021/12/06 11:24:08;;;;;;;12.75;6.72;;;7.10;99.90;;;;;;5036489;28;20214;-79
2021/12/06 11:26:37;;;;;;;10.00;5.82;;;6.90;99.90;;;;;;5035983;28;20190;-79
2021/12/06 11:29:08;;;;;;;10.10;6.72;;;6.90;99.90;;;;;;5036231;28;20686;-79
2021/12/06 11:31:35;;;;;;;18.17;8.23;;;6.90;99.90;;;;;;5036837;28;20207;-79
2021/12/06 11:34:06;;;;;;;12.32;7.10;;;6.90;99.90;;;;;;5036598;28;20284;-79
2021/12/06 11:36:33;;;;;;;12.23;7.55;;;6.80;99.90;;;;;;5044326;28;20196;-80
2021/12/06 11:39:08;;;;;;;10.32;6.35;;;6.80;99.90;;;;;;5042935;28;20239;-80
2021/12/06 11:41:36;;;;;;;13.95;8.77;;;6.90;99.90;;;;;;5038466;28;20207;-80
2021/12/06 11:44:21;;;;;;;10.10;6.75;;;6.80;99.90;;;;;;5040801;28;20207;-80
2021/12/06 11:46:55;;;;;;;13.63;7.53;;;6.80;99.90;;;;;;5046755;28;20206;-80
2021/12/06 11:49:28;;;;;;;11.60;7.80;;;6.80;99.90;;;;;;5046943;28;20189;-81
2021/12/06 11:51:55;;;;;;;10.07;6.45;;;7.00;99.90;;;;;;5045066;28;20215;-80
2021/12/06 11:54:23;;;;;;;14.68;7.85;;;7.10;99.90;;;;;;5048860;28;20550;-81
2021/12/06 11:56:51;;;;;;;16.10;6.65;;;7.20;99.90;;;;;;5048456;28;20226;-81
2021/12/06 11:59:20;;;;;;;11.55;6.15;;;7.10;99.90;;;;;;5044719;28;20246;-81
2021/12/06 12:01:51;;;;;;;13.60;6.30;;;7.20;99.90;;;;;;5044096;28;20516;-80
2021/12/06 12:04:21;;;;;;;10.15;5.80;;;7.20;99.90;;;;;;5044232;28;20191;-81
2021/12/06 12:06:50;;;;;;;8.80;6.07;;;7.10;99.90;;;;;;5040238;28;20279;-80
2021/12/06 12:09:22;;;;;;;10.93;5.68;;;7.20;99.90;;;;;;5043265;28;20319;-80
2021/12/06 12:12:01;;;;;;;13.45;6.88;;;7.20;99.90;;;;;;5043041;28;20224;-80
2021/12/06 12:14:31;;;;;;;7.60;4.35;;;7.40;99.90;;;;;;5038230;28;20199;-80
2021/12/06 12:16:59;;;;;;;6.25;4.15;;;7.50;99.90;;;;;;5038071;28;20300;-80
2021/12/06 12:19:26;;;;;;;8.10;4.13;;;7.80;99.90;;;;;;5037898;28;20218;-83
2021/12/06 12:21:54;;;;;;;11.48;4.78;;;8.00;99.90;;;;;;5037567;28;20205;-83
2021/12/06 12:24:21;;;;;;;7.78;3.92;;;8.10;99.90;;;;;;5037967;28;20214;-79
2021/12/06 12:27:03;;;;;;;10.13;5.45;;;8.10;99.90;;;;;;5036115;28;20294;-85
2021/12/06 12:29:32;;;;;;;13.27;5.50;;;7.90;99.90;;;;;;5038682;28;20536;-84
2021/12/06 12:32:01;;;;;;;11.35;4.30;;;7.80;99.90;;;;;;5038972;28;20743;-85
2021/12/06 12:34:33;;;;;;;7.60;4.53;;;7.80;99.90;;;;;;5040268;28;20272;-82
2021/12/06 12:37:01;;;;;;;9.52;5.97;;;7.70;99.90;;;;;;5041358;28;20196;-81
2021/12/06 12:39:29;;;;;;;9.40;5.22;;;7.90;99.90;;;;;;5041825;28;20214;-81
2021/12/06 12:41:58;;;;;;;7.90;3.60;;;7.90;99.90;;;;;;5041328;28;20291;-80
2021/12/06 12:44:39;;;;;;;7.13;4.45;;;7.50;99.90;;;;;;5040726;28;20207;-80
2021/12/06 12:47:16;;;;;;;8.38;5.30;;;7.70;99.90;;;;;;5040407;28;20287;-78
2021/12/06 12:49:47;;;;;;;11.85;4.95;;;7.60;99.90;;;;;;5044922;28;20534;-79
2021/12/06 12:52:14;;;;;;;6.45;3.70;;;7.60;99.90;;;;;;5043760;28;20363;-78
2021/12/06 12:54:45;;;;;;;7.15;4.72;;;7.60;99.90;;;;;;5042394;28;20295;-82